sensor_id;sensor_type;location;lat;lon;timestamp;P1;durP1;ratioP1;P2;durP2;ratioP2
23115;SDS011;11727;52.134;5.052;2022-08-21T00:01:02;5.10;;;1.52;;
23115;SDS011;11727;52.134;5.052;2022-08-21T00:03:31;4.63;;;1.63;;
23115;SDS011;11727;52.134;5.052;2022-08-21T00:05:57;3.13;;;1.52;;
23115;SDS011;11727;52.134;5.052;2022-08-21T00:08:22;5.40;;;1.70;;
23115;SDS011;11727;52.134;5.052;2022-08-21T00:10:51;2.22;;;1.10;;
23115;SDS011;11727;52.134;5.052;2022-08-21T00:13:17;3.53;;;1.58;;
23115;SDS011;11727;52.134;5.052;2022-08-21T00:15:44;3.45;;;1.38;;
23115;SDS011;11727;52.134;5.052;2022-08-21T00:18:10;5.82;;;1.50;;
23115;SDS011;11727;52.134;5.052;2022-08-21T00:20:36;4.60;;;1.67;;
23115;SDS011;11727;52.134;5.052;2022-08-21T00:23:03;3.40;;;1.40;;
23115;SDS011;11727;52.134;5.052;2022-08-21T00:25:29;11.35;;;1.90;;
23115;SDS011;11727;52.134;5.052;2022-08-21T00:27:55;3.83;;;1.70;;
23115;SDS011;11727;52.134;5.052;2022-08-21T00:30:21;6.88;;;1.85;;
23115;SDS011;11727;52.134;5.052;2022-08-21T00:32:51;8.88;;;1.80;;
23115;SDS011;11727;52.134;5.052;2022-08-21T00:35:19;5.28;;;1.63;;
23115;SDS011;11727;52.134;5.052;2022-08-21T00:37:48;4.28;;;1.45;;
23115;SDS011;11727;52.134;5.052;2022-08-21T00:40:15;11.10;;;2.95;;
23115;SDS011;11727;52.134;5.052;2022-08-21T00:42:43;13.05;;;3.03;;
23115;SDS011;11727;52.134;5.052;2022-08-21T00:45:09;8.73;;;2.35;;
23115;SDS011;11727;52.134;5.052;2022-08-21T00:47:35;12.20;;;2.45;;
23115;SDS011;11727;52.134;5.052;2022-08-21T00:50:03;6.70;;;1.42;;
23115;SDS011;11727;52.134;5.052;2022-08-21T00:52:31;10.63;;;1.73;;
23115;SDS011;11727;52.134;5.052;2022-08-21T00:54:59;5.93;;;1.90;;
23115;SDS011;11727;52.134;5.052;2022-08-21T00:59:54;6.00;;;1.65;;
23115;SDS011;11727;52.134;5.052;2022-08-21T01:02:26;9.15;;;1.20;;
23115;SDS011;11727;52.134;5.052;2022-08-21T01:04:52;6.05;;;1.27;;
23115;SDS011;11727;52.134;5.052;2022-08-21T01:07:18;6.93;;;2.00;;
23115;SDS011;11727;52.134;5.052;2022-08-21T01:09:45;3.03;;;1.15;;
23115;SDS011;11727;52.134;5.052;2022-08-21T01:12:12;4.75;;;1.77;;
23115;SDS011;11727;52.134;5.052;2022-08-21T01:14:40;13.75;;;2.28;;
23115;SDS011;11727;52.134;5.052;2022-08-21T01:17:07;10.23;;;2.60;;
23115;SDS011;11727;52.134;5.052;2022-08-21T01:19:34;11.20;;;1.85;;
23115;SDS011;11727;52.134;5.052;2022-08-21T01:22:00;8.60;;;1.75;;
23115;SDS011;11727;52.134;5.052;2022-08-21T01:24:26;3.40;;;1.67;;
23115;SDS011;11727;52.134;5.052;2022-08-21T01:26:56;6.30;;;1.70;;
23115;SDS011;11727;52.134;5.052;2022-08-21T01:32:02;2.75;;;1.15;;
23115;SDS011;11727;52.134;5.052;2022-08-21T01:34:30;2.33;;;1.15;;
23115;SDS011;11727;52.134;5.052;2022-08-21T01:37:00;2.17;;;1.25;;
23115;SDS011;11727;52.134;5.052;2022-08-21T01:39:26;4.57;;;1.45;;
23115;SDS011;11727;52.134;5.052;2022-08-21T01:41:52;7.25;;;1.55;;
23115;SDS011;11727;52.134;5.052;2022-08-21T01:44:20;8.65;;;1.70;;
23115;SDS011;11727;52.134;5.052;2022-08-21T01:46:46;6.93;;;2.38;;
23115;SDS011;11727;52.134;5.052;2022-08-21T01:49:13;8.90;;;2.60;;
23115;SDS011;11727;52.134;5.052;2022-08-21T01:51:39;9.80;;;1.48;;
23115;SDS011;11727;52.134;5.052;2022-08-21T01:54:04;6.55;;;1.88;;
23115;SDS011;11727;52.134;5.052;2022-08-21T01:56:35;11.02;;;2.85;;
23115;SDS011;11727;52.134;5.052;2022-08-21T01:59:05;6.63;;;2.13;;
23115;SDS011;11727;52.134;5.052;2022-08-21T02:01:31;4.30;;;1.08;;
23115;SDS011;11727;52.134;5.052;2022-08-21T02:03:57;10.95;;;1.88;;
23115;SDS011;11727;52.134;5.052;2022-08-21T02:06:24;10.98;;;2.60;;
23115;SDS011;11727;52.134;5.052;2022-08-21T02:08:50;11.30;;;2.30;;
23115;SDS011;11727;52.134;5.052;2022-08-21T02:11:16;8.43;;;2.85;;
23115;SDS011;11727;52.134;5.052;2022-08-21T02:13:42;10.32;;;2.72;;
23115;SDS011;11727;52.134;5.052;2022-08-21T02:16:08;6.35;;;1.70;;
23115;SDS011;11727;52.134;5.052;2022-08-21T02:18:34;11.95;;;1.92;;
23115;SDS011;11727;52.134;5.052;2022-08-21T02:21:03;5.22;;;1.80;;
23115;SDS011;11727;52.134;5.052;2022-08-21T02:23:29;8.02;;;2.13;;
23115;SDS011;11727;52.134;5.052;2022-08-21T02:25:58;9.45;;;2.65;;
23115;SDS011;11727;52.134;5.052;2022-08-21T02:28:24;11.20;;;3.63;;
23115;SDS011;11727;52.134;5.052;2022-08-21T02:30:51;10.45;;;2.17;;
23115;SDS011;11727;52.134;5.052;2022-08-21T02:33:17;13.90;;;2.70;;
23115;SDS011;11727;52.134;5.052;2022-08-21T02:35:43;7.60;;;1.95;;
23115;SDS011;11727;52.134;5.052;2022-08-21T02:40:39;5.57;;;1.70;;
23115;SDS011;11727;52.134;5.052;2022-08-21T02:43:07;11.55;;;2.00;;
23115;SDS011;11727;52.134;5.052;2022-08-21T02:45:34;6.43;;;1.65;;
23115;SDS011;11727;52.134;5.052;2022-08-21T02:50:33;6.93;;;2.03;;
23115;SDS011;11727;52.134;5.052;2022-08-21T02:53:01;5.78;;;1.80;;
23115;SDS011;11727;52.134;5.052;2022-08-21T02:55:32;6.47;;;2.08;;
23115;SDS011;11727;52.134;5.052;2022-08-21T02:57:59;6.47;;;2.10;;
23115;SDS011;11727;52.134;5.052;2022-08-21T03:00:26;10.98;;;2.13;;
23115;SDS011;11727;52.134;5.052;2022-08-21T03:02:53;6.78;;;1.80;;
23115;SDS011;11727;52.134;5.052;2022-08-21T03:05:20;6.25;;;2.15;;
23115;SDS011;11727;52.134;5.052;2022-08-21T03:07:46;2.92;;;1.50;;
23115;SDS011;11727;52.134;5.052;2022-08-21T03:10:12;3.08;;;1.35;;
23115;SDS011;11727;52.134;5.052;2022-08-21T03:12:38;5.47;;;2.03;;
23115;SDS011;11727;52.134;5.052;2022-08-21T03:15:04;5.53;;;1.77;;
23115;SDS011;11727;52.134;5.052;2022-08-21T03:17:32;5.85;;;1.77;;
23115;SDS011;11727;52.134;5.052;2022-08-21T03:20:01;5.07;;;1.50;;
23115;SDS011;11727;52.134;5.052;2022-08-21T03:22:29;17.92;;;2.40;;
23115;SDS011;11727;52.134;5.052;2022-08-21T03:24:54;8.40;;;1.98;;
23115;SDS011;11727;52.134;5.052;2022-08-21T03:27:22;6.93;;;2.67;;
23115;SDS011;11727;52.134;5.052;2022-08-21T03:29:50;10.65;;;2.42;;
23115;SDS011;11727;52.134;5.052;2022-08-21T03:32:16;10.82;;;2.70;;
23115;SDS011;11727;52.134;5.052;2022-08-21T03:34:41;8.90;;;2.22;;
23115;SDS011;11727;52.134;5.052;2022-08-21T03:37:07;10.90;;;2.75;;
23115;SDS011;11727;52.134;5.052;2022-08-21T03:39:34;18.95;;;2.50;;
23115;SDS011;11727;52.134;5.052;2022-08-21T03:42:00;11.60;;;2.25;;
23115;SDS011;11727;52.134;5.052;2022-08-21T03:44:26;14.40;;;2.22;;
23115;SDS011;11727;52.134;5.052;2022-08-21T03:46:54;6.38;;;2.10;;
23115;SDS011;11727;52.134;5.052;2022-08-21T03:49:21;12.73;;;2.35;;
23115;SDS011;11727;52.134;5.052;2022-08-21T03:51:46;18.88;;;2.47;;
23115;SDS011;11727;52.134;5.052;2022-08-21T03:54:12;6.30;;;2.00;;
23115;SDS011;11727;52.134;5.052;2022-08-21T03:56:37;5.18;;;1.92;;
23115;SDS011;11727;52.134;5.052;2022-08-21T03:59:04;7.93;;;1.70;;
23115;SDS011;11727;52.134;5.052;2022-08-21T04:01:33;4.18;;;1.30;;
23115;SDS011;11727;52.134;5.052;2022-08-21T04:03:59;3.08;;;1.98;;
23115;SDS011;11727;52.134;5.052;2022-08-21T04:06:25;4.25;;;1.25;;
23115;SDS011;11727;52.134;5.052;2022-08-21T04:08:51;3.50;;;1.80;;
23115;SDS011;11727;52.134;5.052;2022-08-21T04:11:18;9.18;;;2.05;;
23115;SDS011;11727;52.134;5.052;2022-08-21T04:13:44;6.72;;;1.90;;
23115;SDS011;11727;52.134;5.052;2022-08-21T04:16:10;7.65;;;2.58;;
23115;SDS011;11727;52.134;5.052;2022-08-21T04:18:36;5.75;;;1.77;;
23115;SDS011;11727;52.134;5.052;2022-08-21T04:21:05;8.63;;;2.45;;
23115;SDS011;11727;52.134;5.052;2022-08-21T04:23:32;4.72;;;1.58;;
23115;SDS011;11727;52.134;5.052;2022-08-21T04:25:59;12.27;;;1.55;;
23115;SDS011;11727;52.134;5.052;2022-08-21T04:28:27;4.28;;;1.60;;
23115;SDS011;11727;52.134;5.052;2022-08-21T04:30:53;6.95;;;1.80;;
23115;SDS011;11727;52.134;5.052;2022-08-21T04:33:20;9.10;;;2.88;;
23115;SDS011;11727;52.134;5.052;2022-08-21T04:35:46;4.00;;;2.08;;
23115;SDS011;11727;52.134;5.052;2022-08-21T04:38:11;5.28;;;1.88;;
23115;SDS011;11727;52.134;5.052;2022-08-21T04:40:40;6.88;;;2.22;;
23115;SDS011;11727;52.134;5.052;2022-08-21T04:43:06;11.10;;;2.85;;
23115;SDS011;11727;52.134;5.052;2022-08-21T04:48:05;6.38;;;2.58;;
23115;SDS011;11727;52.134;5.052;2022-08-21T04:53:15;5.28;;;2.13;;
23115;SDS011;11727;52.134;5.052;2022-08-21T04:56:04;6.20;;;1.90;;
23115;SDS011;11727;52.134;5.052;2022-08-21T04:58:33;7.75;;;2.42;;
23115;SDS011;11727;52.134;5.052;2022-08-21T05:01:00;5.45;;;2.15;;
23115;SDS011;11727;52.134;5.052;2022-08-21T05:03:29;15.38;;;2.30;;
23115;SDS011;11727;52.134;5.052;2022-08-21T05:05:56;4.40;;;1.90;;
23115;SDS011;11727;52.134;5.052;2022-08-21T05:08:23;4.80;;;2.25;;
23115;SDS011;11727;52.134;5.052;2022-08-21T05:10:50;6.30;;;2.25;;
23115;SDS011;11727;52.134;5.052;2022-08-21T05:13:16;4.93;;;2.17;;
23115;SDS011;11727;52.134;5.052;2022-08-21T05:15:42;8.32;;;2.47;;
23115;SDS011;11727;52.134;5.052;2022-08-21T05:18:08;5.88;;;2.35;;
23115;SDS011;11727;52.134;5.052;2022-08-21T05:20:37;4.55;;;2.15;;
23115;SDS011;11727;52.134;5.052;2022-08-21T05:23:06;7.65;;;2.05;;
23115;SDS011;11727;52.134;5.052;2022-08-21T05:25:36;5.32;;;1.98;;
23115;SDS011;11727;52.134;5.052;2022-08-21T05:28:02;13.27;;;2.05;;
23115;SDS011;11727;52.134;5.052;2022-08-21T05:30:28;10.63;;;2.65;;
23115;SDS011;11727;52.134;5.052;2022-08-21T05:32:57;12.73;;;3.28;;
23115;SDS011;11727;52.134;5.052;2022-08-21T05:35:24;7.75;;;2.55;;
23115;SDS011;11727;52.134;5.052;2022-08-21T05:37:51;12.50;;;2.67;;
23115;SDS011;11727;52.134;5.052;2022-08-21T05:40:17;6.90;;;1.90;;
23115;SDS011;11727;52.134;5.052;2022-08-21T05:42:43;4.57;;;1.77;;
23115;SDS011;11727;52.134;5.052;2022-08-21T05:45:09;8.07;;;2.72;;
23115;SDS011;11727;52.134;5.052;2022-08-21T05:47:35;3.80;;;2.40;;
23115;SDS011;11727;52.134;5.052;2022-08-21T05:50:01;4.30;;;1.73;;
23115;SDS011;11727;52.134;5.052;2022-08-21T05:52:27;5.35;;;1.80;;
23115;SDS011;11727;52.134;5.052;2022-08-21T05:54:53;5.30;;;2.33;;
23115;SDS011;11727;52.134;5.052;2022-08-21T05:57:19;9.45;;;2.13;;
23115;SDS011;11727;52.134;5.052;2022-08-21T05:59:45;4.38;;;2.38;;
23115;SDS011;11727;52.134;5.052;2022-08-21T06:02:11;3.72;;;1.67;;
23115;SDS011;11727;52.134;5.052;2022-08-21T06:04:37;6.57;;;2.28;;
23115;SDS011;11727;52.134;5.052;2022-08-21T06:07:04;8.88;;;1.80;;
23115;SDS011;11727;52.134;5.052;2022-08-21T06:09:30;12.07;;;2.30;;
23115;SDS011;11727;52.134;5.052;2022-08-21T06:11:55;6.70;;;2.88;;
23115;SDS011;11727;52.134;5.052;2022-08-21T06:14:21;5.13;;;2.38;;
23115;SDS011;11727;52.134;5.052;2022-08-21T06:16:47;3.65;;;2.05;;
23115;SDS011;11727;52.134;5.052;2022-08-21T06:19:12;6.95;;;2.88;;
23115;SDS011;11727;52.134;5.052;2022-08-21T06:21:38;4.30;;;2.42;;
23115;SDS011;11727;52.134;5.052;2022-08-21T06:24:04;4.40;;;2.17;;
23115;SDS011;11727;52.134;5.052;2022-08-21T06:26:30;8.05;;;2.15;;
23115;SDS011;11727;52.134;5.052;2022-08-21T06:28:56;6.95;;;2.33;;
23115;SDS011;11727;52.134;5.052;2022-08-21T06:31:23;6.97;;;2.03;;
23115;SDS011;11727;52.134;5.052;2022-08-21T06:33:51;5.50;;;2.60;;
23115;SDS011;11727;52.134;5.052;2022-08-21T06:36:17;4.68;;;2.00;;
23115;SDS011;11727;52.134;5.052;2022-08-21T06:38:46;4.72;;;1.95;;
23115;SDS011;11727;52.134;5.052;2022-08-21T06:41:12;8.07;;;2.17;;
23115;SDS011;11727;52.134;5.052;2022-08-21T06:43:38;9.32;;;2.25;;
23115;SDS011;11727;52.134;5.052;2022-08-21T06:46:03;8.32;;;2.03;;
23115;SDS011;11727;52.134;5.052;2022-08-21T06:48:29;4.63;;;1.80;;
23115;SDS011;11727;52.134;5.052;2022-08-21T06:50:58;2.85;;;1.70;;
23115;SDS011;11727;52.134;5.052;2022-08-21T06:53:25;10.52;;;2.60;;
23115;SDS011;11727;52.134;5.052;2022-08-21T06:55:50;8.70;;;2.22;;
23115;SDS011;11727;52.134;5.052;2022-08-21T06:58:16;6.28;;;1.95;;
23115;SDS011;11727;52.134;5.052;2022-08-21T07:00:44;11.70;;;2.55;;
23115;SDS011;11727;52.134;5.052;2022-08-21T07:03:25;4.93;;;2.03;;
23115;SDS011;11727;52.134;5.052;2022-08-21T07:05:52;3.90;;;1.60;;
23115;SDS011;11727;52.134;5.052;2022-08-21T07:08:18;6.47;;;2.38;;
23115;SDS011;11727;52.134;5.052;2022-08-21T07:10:44;8.02;;;2.25;;
23115;SDS011;11727;52.134;5.052;2022-08-21T07:13:11;5.93;;;2.42;;
23115;SDS011;11727;52.134;5.052;2022-08-21T07:15:37;11.32;;;2.13;;
23115;SDS011;11727;52.134;5.052;2022-08-21T07:18:02;4.10;;;1.70;;
23115;SDS011;11727;52.134;5.052;2022-08-21T07:20:29;6.78;;;2.33;;
23115;SDS011;11727;52.134;5.052;2022-08-21T07:22:59;9.10;;;3.05;;
23115;SDS011;11727;52.134;5.052;2022-08-21T07:25:28;3.28;;;1.30;;
23115;SDS011;11727;52.134;5.052;2022-08-21T07:27:53;7.32;;;2.33;;
23115;SDS011;11727;52.134;5.052;2022-08-21T07:30:19;4.13;;;1.65;;
23115;SDS011;11727;52.134;5.052;2022-08-21T07:32:45;5.32;;;2.30;;
23115;SDS011;11727;52.134;5.052;2022-08-21T07:35:12;10.30;;;1.83;;
23115;SDS011;11727;52.134;5.052;2022-08-21T07:37:37;6.65;;;2.20;;
23115;SDS011;11727;52.134;5.052;2022-08-21T07:40:03;7.43;;;2.35;;
23115;SDS011;11727;52.134;5.052;2022-08-21T07:42:30;3.33;;;1.80;;
23115;SDS011;11727;52.134;5.052;2022-08-21T07:44:55;5.68;;;1.88;;
23115;SDS011;11727;52.134;5.052;2022-08-21T07:47:21;11.35;;;2.22;;
23115;SDS011;11727;52.134;5.052;2022-08-21T07:49:46;9.43;;;2.72;;
23115;SDS011;11727;52.134;5.052;2022-08-21T07:52:15;6.90;;;2.13;;
23115;SDS011;11727;52.134;5.052;2022-08-21T07:54:40;5.45;;;2.05;;
23115;SDS011;11727;52.134;5.052;2022-08-21T07:57:06;8.38;;;2.17;;
23115;SDS011;11727;52.134;5.052;2022-08-21T07:59:32;9.40;;;2.72;;
23115;SDS011;11727;52.134;5.052;2022-08-21T08:01:57;4.05;;;2.22;;
23115;SDS011;11727;52.134;5.052;2022-08-21T08:04:23;11.43;;;2.50;;
23115;SDS011;11727;52.134;5.052;2022-08-21T08:06:49;2.60;;;1.52;;
23115;SDS011;11727;52.134;5.052;2022-08-21T08:09:14;4.20;;;1.80;;
23115;SDS011;11727;52.134;5.052;2022-08-21T08:11:43;8.37;;;2.77;;
23115;SDS011;11727;52.134;5.052;2022-08-21T08:14:09;7.95;;;1.90;;
23115;SDS011;11727;52.134;5.052;2022-08-21T08:16:35;5.43;;;2.40;;
23115;SDS011;11727;52.134;5.052;2022-08-21T08:19:01;5.53;;;3.08;;
23115;SDS011;11727;52.134;5.052;2022-08-21T08:21:27;7.68;;;2.10;;
23115;SDS011;11727;52.134;5.052;2022-08-21T08:23:53;4.32;;;2.10;;
23115;SDS011;11727;52.134;5.052;2022-08-21T08:26:19;6.18;;;1.95;;
23115;SDS011;11727;52.134;5.052;2022-08-21T08:28:47;7.93;;;2.17;;
23115;SDS011;11727;52.134;5.052;2022-08-21T08:31:13;4.57;;;1.60;;
23115;SDS011;11727;52.134;5.052;2022-08-21T08:33:38;6.63;;;2.38;;
23115;SDS011;11727;52.134;5.052;2022-08-21T08:36:04;4.90;;;2.28;;
23115;SDS011;11727;52.134;5.052;2022-08-21T08:38:30;6.55;;;2.22;;
23115;SDS011;11727;52.134;5.052;2022-08-21T08:41:16;7.38;;;2.00;;
23115;SDS011;11727;52.134;5.052;2022-08-21T08:43:50;6.05;;;1.90;;
23115;SDS011;11727;52.134;5.052;2022-08-21T08:46:19;8.45;;;2.47;;
23115;SDS011;11727;52.134;5.052;2022-08-21T08:48:56;9.13;;;2.53;;
23115;SDS011;11727;52.134;5.052;2022-08-21T08:54:21;5.15;;;1.63;;
23115;SDS011;11727;52.134;5.052;2022-08-21T08:57:00;7.28;;;2.03;;
23115;SDS011;11727;52.134;5.052;2022-08-21T08:59:41;3.30;;;1.90;;
23115;SDS011;11727;52.134;5.052;2022-08-21T09:02:17;4.25;;;2.25;;
23115;SDS011;11727;52.134;5.052;2022-08-21T09:04:44;8.73;;;2.28;;
23115;SDS011;11727;52.134;5.052;2022-08-21T09:07:24;4.28;;;1.40;;
23115;SDS011;11727;52.134;5.052;2022-08-21T09:23:42;3.47;;;1.13;;
23115;SDS011;11727;52.134;5.052;2022-08-21T09:26:18;8.30;;;1.40;;
23115;SDS011;11727;52.134;5.052;2022-08-21T09:28:58;8.10;;;1.40;;
23115;SDS011;11727;52.134;5.052;2022-08-21T09:34:03;4.03;;;0.90;;
23115;SDS011;11727;52.134;5.052;2022-08-21T09:36:41;4.32;;;1.13;;
23115;SDS011;11727;52.134;5.052;2022-08-21T09:39:13;4.55;;;1.10;;
23115;SDS011;11727;52.134;5.052;2022-08-21T09:42:00;4.53;;;0.80;;
23115;SDS011;11727;52.134;5.052;2022-08-21T09:44:32;5.95;;;1.10;;
23115;SDS011;11727;52.134;5.052;2022-08-21T09:47:04;5.97;;;0.90;;
23115;SDS011;11727;52.134;5.052;2022-08-21T09:49:31;2.75;;;1.15;;
23115;SDS011;11727;52.134;5.052;2022-08-21T09:51:59;6.55;;;1.30;;
23115;SDS011;11727;52.134;5.052;2022-08-21T09:54:30;5.38;;;1.40;;
23115;SDS011;11727;52.134;5.052;2022-08-21T09:59:54;3.10;;;0.80;;
23115;SDS011;11727;52.134;5.052;2022-08-21T10:04:52;9.90;;;1.02;;
23115;SDS011;11727;52.134;5.052;2022-08-21T10:07:46;1.02;;;0.55;;
23115;SDS011;11727;52.134;5.052;2022-08-21T10:10:19;4.03;;;0.98;;
23115;SDS011;11727;52.134;5.052;2022-08-21T10:12:54;4.80;;;0.80;;
23115;SDS011;11727;52.134;5.052;2022-08-21T10:15:47;2.72;;;0.75;;
23115;SDS011;11727;52.134;5.052;2022-08-21T10:18:35;1.58;;;0.75;;
23115;SDS011;11727;52.134;5.052;2022-08-21T10:21:19;5.25;;;1.25;;
23115;SDS011;11727;52.134;5.052;2022-08-21T10:29:46;2.35;;;1.45;;
23115;SDS011;11727;52.134;5.052;2022-08-21T10:40:26;6.50;;;1.30;;
23115;SDS011;11727;52.134;5.052;2022-08-21T10:43:21;6.70;;;1.90;;
23115;SDS011;11727;52.134;5.052;2022-08-21T10:50:59;2.55;;;0.95;;
23115;SDS011;11727;52.134;5.052;2022-08-21T10:53:36;6.10;;;1.45;;
23115;SDS011;11727;52.134;5.052;2022-08-21T10:56:21;7.53;;;1.27;;
23115;SDS011;11727;52.134;5.052;2022-08-21T10:58:51;2.58;;;0.93;;
23115;SDS011;11727;52.134;5.052;2022-08-21T11:01:26;2.88;;;1.00;;
23115;SDS011;11727;52.134;5.052;2022-08-21T11:04:03;5.15;;;1.20;;
23115;SDS011;11727;52.134;5.052;2022-08-21T11:06:39;2.45;;;1.35;;
23115;SDS011;11727;52.134;5.052;2022-08-21T11:09:11;5.00;;;1.17;;
23115;SDS011;11727;52.134;5.052;2022-08-21T11:11:58;9.38;;;0.85;;
23115;SDS011;11727;52.134;5.052;2022-08-21T11:14:45;6.93;;;1.20;;
23115;SDS011;11727;52.134;5.052;2022-08-21T11:17:24;3.60;;;1.27;;
23115;SDS011;11727;52.134;5.052;2022-08-21T11:20:15;2.47;;;0.90;;
23115;SDS011;11727;52.134;5.052;2022-08-21T11:25:56;4.68;;;1.20;;
23115;SDS011;11727;52.134;5.052;2022-08-21T11:28:23;2.78;;;0.77;;
23115;SDS011;11727;52.134;5.052;2022-08-21T11:44:39;3.05;;;0.98;;
23115;SDS011;11727;52.134;5.052;2022-08-21T11:49:53;2.97;;;0.95;;
23115;SDS011;11727;52.134;5.052;2022-08-21T11:53:15;2.15;;;0.80;;
23115;SDS011;11727;52.134;5.052;2022-08-21T11:58:21;1.63;;;0.60;;
23115;SDS011;11727;52.134;5.052;2022-08-21T12:03:42;3.65;;;0.55;;
23115;SDS011;11727;52.134;5.052;2022-08-21T12:06:27;4.00;;;0.70;;
23115;SDS011;11727;52.134;5.052;2022-08-21T12:09:32;1.90;;;0.55;;
23115;SDS011;11727;52.134;5.052;2022-08-21T12:11:50;1.85;;;0.52;;
23115;SDS011;11727;52.134;5.052;2022-08-21T12:14:48;2.72;;;0.77;;
23115;SDS011;11727;52.134;5.052;2022-08-21T12:17:21;6.53;;;0.85;;
23115;SDS011;11727;52.134;5.052;2022-08-21T12:20:14;2.05;;;0.60;;
23115;SDS011;11727;52.134;5.052;2022-08-21T12:22:41;1.85;;;0.60;;
23115;SDS011;11727;52.134;5.052;2022-08-21T12:25:16;2.17;;;0.77;;
23115;SDS011;11727;52.134;5.052;2022-08-21T12:27:47;5.63;;;0.98;;
23115;SDS011;11727;52.134;5.052;2022-08-21T12:32:56;3.13;;;0.93;;
23115;SDS011;11727;52.134;5.052;2022-08-21T12:35:25;1.83;;;0.60;;
23115;SDS011;11727;52.134;5.052;2022-08-21T12:38:23;1.73;;;0.60;;
23115;SDS011;11727;52.134;5.052;2022-08-21T12:40:55;1.92;;;0.75;;
23115;SDS011;11727;52.134;5.052;2022-08-21T12:45:58;2.63;;;0.77;;
23115;SDS011;11727;52.134;5.052;2022-08-21T12:51:24;5.63;;;0.82;;
23115;SDS011;11727;52.134;5.052;2022-08-21T12:53:57;5.35;;;0.70;;
23115;SDS011;11727;52.134;5.052;2022-08-21T12:56:28;2.67;;;0.68;;
23115;SDS011;11727;52.134;5.052;2022-08-21T12:59:05;4.68;;;1.00;;
23115;SDS011;11727;52.134;5.052;2022-08-21T13:04:07;3.13;;;0.80;;
23115;SDS011;11727;52.134;5.052;2022-08-21T13:06:37;1.98;;;0.88;;
23115;SDS011;11727;52.134;5.052;2022-08-21T13:09:10;2.88;;;0.70;;
23115;SDS011;11727;52.134;5.052;2022-08-21T13:11:39;3.70;;;1.02;;
23115;SDS011;11727;52.134;5.052;2022-08-21T13:14:09;2.58;;;0.82;;
23115;SDS011;11727;52.134;5.052;2022-08-21T13:16:42;2.20;;;0.63;;
23115;SDS011;11727;52.134;5.052;2022-08-21T13:19:11;3.22;;;0.60;;
23115;SDS011;11727;52.134;5.052;2022-08-21T13:21:42;5.97;;;0.65;;
23115;SDS011;11727;52.134;5.052;2022-08-21T13:26:42;4.35;;;1.08;;
23115;SDS011;11727;52.134;5.052;2022-08-21T13:29:13;1.77;;;0.60;;
23115;SDS011;11727;52.134;5.052;2022-08-21T13:31:47;2.25;;;1.10;;
23115;SDS011;11727;52.134;5.052;2022-08-21T13:34:17;2.55;;;0.60;;
23115;SDS011;11727;52.134;5.052;2022-08-21T13:36:43;3.03;;;0.68;;
23115;SDS011;11727;52.134;5.052;2022-08-21T13:39:10;2.58;;;0.82;;
23115;SDS011;11727;52.134;5.052;2022-08-21T13:41:44;2.08;;;0.60;;
23115;SDS011;11727;52.134;5.052;2022-08-21T13:44:22;3.40;;;0.70;;
23115;SDS011;11727;52.134;5.052;2022-08-21T13:47:04;1.88;;;0.60;;
23115;SDS011;11727;52.134;5.052;2022-08-21T13:49:32;2.93;;;0.63;;
23115;SDS011;11727;52.134;5.052;2022-08-21T13:52:01;2.78;;;1.00;;
23115;SDS011;11727;52.134;5.052;2022-08-21T13:56:58;3.88;;;0.60;;
23115;SDS011;11727;52.134;5.052;2022-08-21T13:59:25;2.15;;;0.82;;
23115;SDS011;11727;52.134;5.052;2022-08-21T14:01:59;2.83;;;1.17;;
23115;SDS011;11727;52.134;5.052;2022-08-21T14:04:39;3.15;;;0.60;;
23115;SDS011;11727;52.134;5.052;2022-08-21T14:07:26;0.73;;;0.50;;
23115;SDS011;11727;52.134;5.052;2022-08-21T14:09:53;1.52;;;0.75;;
23115;SDS011;11727;52.134;5.052;2022-08-21T14:12:24;3.20;;;0.85;;
23115;SDS011;11727;52.134;5.052;2022-08-21T14:14:54;2.70;;;0.70;;
23115;SDS011;11727;52.134;5.052;2022-08-21T14:17:29;2.55;;;0.75;;
23115;SDS011;11727;52.134;5.052;2022-08-21T14:19:57;1.27;;;0.70;;
23115;SDS011;11727;52.134;5.052;2022-08-21T14:30:35;1.95;;;0.80;;
23115;SDS011;11727;52.134;5.052;2022-08-21T14:33:03;0.95;;;0.60;;
23115;SDS011;11727;52.134;5.052;2022-08-21T14:35:32;2.38;;;0.95;;
23115;SDS011;11727;52.134;5.052;2022-08-21T14:37:58;3.13;;;0.60;;
23115;SDS011;11727;52.134;5.052;2022-08-21T14:40:24;2.80;;;0.57;;
23115;SDS011;11727;52.134;5.052;2022-08-21T14:42:49;2.20;;;0.70;;
23115;SDS011;11727;52.134;5.052;2022-08-21T14:45:16;1.20;;;0.52;;
23115;SDS011;11727;52.134;5.052;2022-08-21T14:47:51;3.63;;;1.25;;
23115;SDS011;11727;52.134;5.052;2022-08-21T14:50:17;1.52;;;0.50;;
23115;SDS011;11727;52.134;5.052;2022-08-21T14:52:42;1.55;;;0.85;;
23115;SDS011;11727;52.134;5.052;2022-08-21T14:55:10;2.83;;;0.70;;
23115;SDS011;11727;52.134;5.052;2022-08-21T14:57:39;1.85;;;1.05;;
23115;SDS011;11727;52.134;5.052;2022-08-21T15:00:11;2.42;;;0.90;;
23115;SDS011;11727;52.134;5.052;2022-08-21T15:02:41;6.07;;;0.90;;
23115;SDS011;11727;52.134;5.052;2022-08-21T15:05:07;3.53;;;0.82;;
23115;SDS011;11727;52.134;5.052;2022-08-21T15:07:33;2.90;;;0.60;;
23115;SDS011;11727;52.134;5.052;2022-08-21T15:09:59;2.78;;;0.80;;
23115;SDS011;11727;52.134;5.052;2022-08-21T15:12:24;2.58;;;0.70;;
23115;SDS011;11727;52.134;5.052;2022-08-21T15:14:50;3.58;;;0.47;;
23115;SDS011;11727;52.134;5.052;2022-08-21T15:17:17;5.45;;;0.60;;
23115;SDS011;11727;52.134;5.052;2022-08-21T15:19:43;2.28;;;0.80;;
23115;SDS011;11727;52.134;5.052;2022-08-21T15:22:09;4.30;;;0.82;;
23115;SDS011;11727;52.134;5.052;2022-08-21T15:24:34;4.57;;;1.10;;
23115;SDS011;11727;52.134;5.052;2022-08-21T15:27:01;4.15;;;0.70;;
23115;SDS011;11727;52.134;5.052;2022-08-21T15:29:29;3.60;;;0.60;;
23115;SDS011;11727;52.134;5.052;2022-08-21T15:31:57;0.70;;;0.40;;
23115;SDS011;11727;52.134;5.052;2022-08-21T15:34:25;2.95;;;0.90;;
23115;SDS011;11727;52.134;5.052;2022-08-21T15:36:52;1.60;;;0.90;;
23115;SDS011;11727;52.134;5.052;2022-08-21T15:39:19;5.63;;;1.00;;
23115;SDS011;11727;52.134;5.052;2022-08-21T15:41:45;4.85;;;1.05;;
23115;SDS011;11727;52.134;5.052;2022-08-21T15:44:11;2.28;;;0.95;;
23115;SDS011;11727;52.134;5.052;2022-08-21T15:46:38;3.92;;;1.02;;
23115;SDS011;11727;52.134;5.052;2022-08-21T15:49:04;4.55;;;0.75;;
23115;SDS011;11727;52.134;5.052;2022-08-21T15:51:30;4.53;;;1.10;;
23115;SDS011;11727;52.134;5.052;2022-08-21T15:53:58;4.05;;;0.90;;
23115;SDS011;11727;52.134;5.052;2022-08-21T15:56:24;9.25;;;1.30;;
23115;SDS011;11727;52.134;5.052;2022-08-21T15:59:05;2.20;;;0.60;;
23115;SDS011;11727;52.134;5.052;2022-08-21T16:01:36;7.70;;;0.63;;
23115;SDS011;11727;52.134;5.052;2022-08-21T16:04:03;6.65;;;0.80;;
23115;SDS011;11727;52.134;5.052;2022-08-21T16:06:29;5.50;;;1.35;;
23115;SDS011;11727;52.134;5.052;2022-08-21T16:08:55;3.67;;;0.77;;
23115;SDS011;11727;52.134;5.052;2022-08-21T16:11:20;4.45;;;0.73;;
23115;SDS011;11727;52.134;5.052;2022-08-21T16:13:46;4.05;;;0.95;;
23115;SDS011;11727;52.134;5.052;2022-08-21T16:16:18;3.63;;;0.70;;
23115;SDS011;11727;52.134;5.052;2022-08-21T16:18:46;1.77;;;0.70;;
23115;SDS011;11727;52.134;5.052;2022-08-21T16:21:13;2.78;;;0.88;;
23115;SDS011;11727;52.134;5.052;2022-08-21T16:23:39;0.50;;;0.40;;
23115;SDS011;11727;52.134;5.052;2022-08-21T16:26:05;6.32;;;0.80;;
23115;SDS011;11727;52.134;5.052;2022-08-21T16:28:33;5.20;;;0.70;;
23115;SDS011;11727;52.134;5.052;2022-08-21T16:31:01;3.33;;;0.70;;
23115;SDS011;11727;52.134;5.052;2022-08-21T16:33:32;4.82;;;0.85;;
23115;SDS011;11727;52.134;5.052;2022-08-21T16:35:59;2.25;;;0.77;;
23115;SDS011;11727;52.134;5.052;2022-08-21T16:38:25;5.70;;;0.70;;
23115;SDS011;11727;52.134;5.052;2022-08-21T16:40:56;2.33;;;0.70;;
23115;SDS011;11727;52.134;5.052;2022-08-21T16:43:22;2.88;;;0.68;;
23115;SDS011;11727;52.134;5.052;2022-08-21T16:45:50;4.50;;;0.93;;